sensor_id;sensor_type;location;lat;lon;timestamp;pressure;altitude;pressure_sealevel;temperature;humidity
13867;BME280;7003;46.982;15.248;2024-02-21T00:00:26;98127.63;;;0.36;100.00
13867;BME280;7003;46.982;15.248;2024-02-21T00:02:53;98136.66;;;0.29;100.00
13867;BME280;7003;46.982;15.248;2024-02-21T00:05:20;98128.16;;;0.22;100.00
13867;BME280;7003;46.982;15.248;2024-02-21T00:07:47;98126.97;;;0.29;100.00
13867;BME280;7003;46.982;15.248;2024-02-21T00:10:15;98122.56;;;0.18;100.00
13867;BME280;7003;46.982;15.248;2024-02-21T00:12:43;98120.56;;;0.09;100.00
13867;BME280;7003;46.982;15.248;2024-02-21T00:15:10;98120.84;;;0.24;100.00
13867;BME280;7003;46.982;15.248;2024-02-21T00:17:37;98119.53;;;0.38;100.00
13867;BME280;7003;46.982;15.248;2024-02-21T00:20:06;98121.56;;;0.19;100.00
13867;BME280;7003;46.982;15.248;2024-02-21T00:22:33;98116.38;;;0.36;100.00
13867;BME280;7003;46.982;15.248;2024-02-21T00:25:00;98122.44;;;-0.04;100.00
13867;BME280;7003;46.982;15.248;2024-02-21T00:27:29;98123.25;;;-0.15;100.00
13867;BME280;7003;46.982;15.248;2024-02-21T00:29:56;98127.81;;;-0.10;100.00
13867;BME280;7003;46.982;15.248;2024-02-21T00:32:26;98127.16;;;-0.29;100.00
13867;BME280;7003;46.982;15.248;2024-02-21T00:34:55;98125.22;;;-0.22;100.00
13867;BME280;7003;46.982;15.248;2024-02-21T00:37:25;98117.06;;;-0.25;100.00
13867;BME280;7003;46.982;15.248;2024-02-21T00:39:54;98118.00;;;-0.31;100.00
13867;BME280;7003;46.982;15.248;2024-02-21T00:42:23;98113.56;;;-0.03;100.00
13867;BME280;7003;46.982;15.248;2024-02-21T00:44:54;98108.28;;;0.09;100.00
13867;BME280;7003;46.982;15.248;2024-02-21T00:47:21;98109.66;;;-0.28;100.00
13867;BME280;7003;46.982;15.248;2024-02-21T00:49:50;98110.22;;;-0.26;100.00
13867;BME280;7003;46.982;15.248;2024-02-21T00:52:17;98099.88;;;-0.21;100.00
13867;BME280;7003;46.982;15.248;2024-02-21T00:54:46;98105.69;;;-0.31;100.00
13867;BME280;7003;46.982;15.248;2024-02-21T00:57:14;98101.16;;;-0.35;100.00
13867;BME280;7003;46.982;15.248;2024-02-21T00:59:41;98105.22;;;-0.28;100.00
13867;BME280;7003;46.982;15.248;2024-02-21T01:02:12;98100.78;;;-0.16;100.00
13867;BME280;7003;46.982;15.248;2024-02-21T01:04:44;98102.34;;;-0.15;100.00
13867;BME280;7003;46.982;15.248;2024-02-21T01:07:13;98112.78;;;-0.03;100.00
13867;BME280;7003;46.982;15.248;2024-02-21T01:09:45;98101.16;;;0.05;100.00
13867;BME280;7003;46.982;15.248;2024-02-21T01:12:21;98102.63;;;0.00;100.00
13867;BME280;7003;46.982;15.248;2024-02-21T01:14:49;98099.53;;;0.15;100.00
13867;BME280;7003;46.982;15.248;2024-02-21T01:17:18;98099.97;;;0.12;100.00
13867;BME280;7003;46.982;15.248;2024-02-21T01:19:47;98096.63;;;0.00;100.00
13867;BME280;7003;46.982;15.248;2024-02-21T01:22:14;98093.88;;;0.23;100.00
13867;BME280;7003;46.982;15.248;2024-02-21T01:24:43;98094.59;;;0.19;100.00
13867;BME280;7003;46.982;15.248;2024-02-21T01:27:10;98091.13;;;0.30;100.00
13867;BME280;7003;46.982;15.248;2024-02-21T01:29:38;98093.78;;;0.18;100.00
13867;BME280;7003;46.982;15.248;2024-02-21T01:32:06;98088.19;;;0.26;100.00
13867;BME280;7003;46.982;15.248;2024-02-21T01:34:37;98086.97;;;0.17;100.00
13867;BME280;7003;46.982;15.248;2024-02-21T01:37:04;98087.16;;;0.27;100.00
13867;BME280;7003;46.982;15.248;2024-02-21T01:39:35;98085.75;;;0.36;100.00
13867;BME280;7003;46.982;15.248;2024-02-21T01:42:06;98073.88;;;0.46;100.00
13867;BME280;7003;46.982;15.248;2024-02-21T01:44:35;98078.84;;;0.47;100.00
13867;BME280;7003;46.982;15.248;2024-02-21T01:47:03;98079.47;;;0.71;100.00
13867;BME280;7003;46.982;15.248;2024-02-21T01:49:31;98077.59;;;0.66;100.00
13867;BME280;7003;46.982;15.248;2024-02-21T01:52:00;98078.31;;;0.62;100.00
13867;BME280;7003;46.982;15.248;2024-02-21T01:54:31;98073.22;;;0.72;100.00
13867;BME280;7003;46.982;15.248;2024-02-21T01:57:01;98075.53;;;0.52;100.00
13867;BME280;7003;46.982;15.248;2024-02-21T01:59:28;98079.25;;;0.56;100.00
13867;BME280;7003;46.982;15.248;2024-02-21T02:01:58;98058.16;;;0.46;100.00
13867;BME280;7003;46.982;15.248;2024-02-21T02:04:25;98060.06;;;0.50;100.00
13867;BME280;7003;46.982;15.248;2024-02-21T02:06:55;98060.28;;;0.65;100.00
13867;BME280;7003;46.982;15.248;2024-02-21T02:09:26;98068.94;;;0.66;100.00
13867;BME280;7003;46.982;15.248;2024-02-21T02:11:53;98067.81;;;0.78;100.00
13867;BME280;7003;46.982;15.248;2024-02-21T02:14:20;98071.84;;;0.86;100.00
13867;BME280;7003;46.982;15.248;2024-02-21T02:16:49;98064.63;;;0.93;100.00
13867;BME280;7003;46.982;15.248;2024-02-21T02:19:17;98057.34;;;0.78;100.00
13867;BME280;7003;46.982;15.248;2024-02-21T02:21:50;98053.81;;;1.06;100.00
13867;BME280;7003;46.982;15.248;2024-02-21T02:24:24;98065.09;;;1.07;100.00
13867;BME280;7003;46.982;15.248;2024-02-21T02:26:52;98071.00;;;0.97;100.00
13867;BME280;7003;46.982;15.248;2024-02-21T02:29:22;98062.91;;;0.82;100.00
13867;BME280;7003;46.982;15.248;2024-02-21T02:31:50;98066.50;;;0.76;100.00
13867;BME280;7003;46.982;15.248;2024-02-21T02:34:17;98063.25;;;0.69;100.00
13867;BME280;7003;46.982;15.248;2024-02-21T02:36:47;98065.94;;;0.74;100.00
13867;BME280;7003;46.982;15.248;2024-02-21T02:39:17;98060.34;;;1.26;100.00
13867;BME280;7003;46.982;15.248;2024-02-21T02:41:48;98063.13;;;1.36;100.00
13867;BME280;7003;46.982;15.248;2024-02-21T02:44:15;98054.69;;;1.34;100.00
13867;BME280;7003;46.982;15.248;2024-02-21T02:46:46;98055.34;;;1.24;100.00
13867;BME280;7003;46.982;15.248;2024-02-21T02:49:15;98049.69;;;1.10;100.00
13867;BME280;7003;46.982;15.248;2024-02-21T02:51:42;98045.25;;;1.33;100.00
13867;BME280;7003;46.982;15.248;2024-02-21T02:54:10;98036.59;;;1.76;100.00
13867;BME280;7003;46.982;15.248;2024-02-21T02:56:37;98035.84;;;1.80;100.00
13867;BME280;7003;46.982;15.248;2024-02-21T02:59:08;98030.38;;;1.60;100.00
13867;BME280;7003;46.982;15.248;2024-02-21T03:01:35;98026.00;;;1.44;100.00
13867;BME280;7003;46.982;15.248;2024-02-21T03:04:07;98020.75;;;1.44;100.00
13867;BME280;7003;46.982;15.248;2024-02-21T03:06:35;98023.38;;;1.44;100.00
13867;BME280;7003;46.982;15.248;2024-02-21T03:09:05;98028.75;;;1.54;100.00
13867;BME280;7003;46.982;15.248;2024-02-21T03:11:36;98031.09;;;1.77;100.00
13867;BME280;7003;46.982;15.248;2024-02-21T03:14:08;98032.41;;;1.80;100.00
13867;BME280;7003;46.982;15.248;2024-02-21T03:16:41;98019.66;;;1.62;100.00
13867;BME280;7003;46.982;15.248;2024-02-21T03:19:08;98028.31;;;1.62;100.00
13867;BME280;7003;46.982;15.248;2024-02-21T03:21:37;98029.41;;;1.66;100.00
13867;BME280;7003;46.982;15.248;2024-02-21T03:24:06;98024.75;;;1.73;100.00
13867;BME280;7003;46.982;15.248;2024-02-21T03:26:36;98028.78;;;1.59;100.00
13867;BME280;7003;46.982;15.248;2024-02-21T03:29:08;98020.31;;;1.52;100.00
13867;BME280;7003;46.982;15.248;2024-02-21T03:31:36;98026.56;;;1.73;100.00
13867;BME280;7003;46.982;15.248;2024-02-21T03:34:05;98025.06;;;1.55;100.00
13867;BME280;7003;46.982;15.248;2024-02-21T03:36:32;98030.31;;;1.33;100.00
13867;BME280;7003;46.982;15.248;2024-02-21T03:39:00;98031.28;;;1.49;100.00
13867;BME280;7003;46.982;15.248;2024-02-21T03:41:27;98015.88;;;1.52;100.00
13867;BME280;7003;46.982;15.248;2024-02-21T03:43:54;98023.00;;;1.57;100.00
13867;BME280;7003;46.982;15.248;2024-02-21T03:46:25;98019.22;;;1.48;100.00
13867;BME280;7003;46.982;15.248;2024-02-21T03:48:55;98013.25;;;1.31;100.00
13867;BME280;7003;46.982;15.248;2024-02-21T03:51:25;98011.34;;;1.26;100.00
13867;BME280;7003;46.982;15.248;2024-02-21T03:53:54;98011.69;;;1.30;100.00
13867;BME280;7003;46.982;15.248;2024-02-21T03:56:22;98005.44;;;1.36;100.00
13867;BME280;7003;46.982;15.248;2024-02-21T03:58:50;98005.50;;;1.19;100.00
13867;BME280;7003;46.982;15.248;2024-02-21T04:01:17;98006.13;;;1.26;100.00
13867;BME280;7003;46.982;15.248;2024-02-21T04:03:48;98004.34;;;1.32;100.00
13867;BME280;7003;46.982;15.248;2024-02-21T04:06:15;98006.78;;;1.16;100.00
13867;BME280;7003;46.982;15.248;2024-02-21T04:08:45;98002.66;;;1.21;100.00
13867;BME280;7003;46.982;15.248;2024-02-21T04:11:12;98001.91;;;1.25;100.00
13867;BME280;7003;46.982;15.248;2024-02-21T04:13:39;98006.91;;;1.27;100.00
13867;BME280;7003;46.982;15.248;2024-02-21T04:16:06;97994.41;;;1.34;100.00
13867;BME280;7003;46.982;15.248;2024-02-21T04:18:33;98004.00;;;1.23;100.00
13867;BME280;7003;46.982;15.248;2024-02-21T04:21:04;97996.13;;;1.23;100.00
13867;BME280;7003;46.982;15.248;2024-02-21T04:23:34;97994.31;;;1.24;100.00
13867;BME280;7003;46.982;15.248;2024-02-21T04:26:03;97991.97;;;1.27;100.00
13867;BME280;7003;46.982;15.248;2024-02-21T04:28:30;98000.09;;;1.26;100.00
13867;BME280;7003;46.982;15.248;2024-02-21T04:30:57;98001.19;;;1.30;100.00
13867;BME280;7003;46.982;15.248;2024-02-21T04:33:24;97994.97;;;1.36;100.00
13867;BME280;7003;46.982;15.248;2024-02-21T04:35:51;97991.53;;;1.57;100.00
13867;BME280;7003;46.982;15.248;2024-02-21T04:38:21;97988.75;;;1.42;100.00
13867;BME280;7003;46.982;15.248;2024-02-21T04:40:50;97995.56;;;1.43;100.00
13867;BME280;7003;46.982;15.248;2024-02-21T04:43:18;97993.06;;;1.53;100.00
13867;BME280;7003;46.982;15.248;2024-02-21T04:45:45;97994.72;;;1.59;100.00
13867;BME280;7003;46.982;15.248;2024-02-21T04:48:12;97986.69;;;1.44;100.00
13867;BME280;7003;46.982;15.248;2024-02-21T04:50:39;97980.22;;;1.30;100.00
13867;BME280;7003;46.982;15.248;2024-02-21T04:53:07;97985.50;;;1.35;100.00
13867;BME280;7003;46.982;15.248;2024-02-21T04:55:38;97978.09;;;1.27;100.00
13867;BME280;7003;46.982;15.248;2024-02-21T04:58:06;97976.97;;;1.44;100.00
13867;BME280;7003;46.982;15.248;2024-02-21T05:00:36;97972.28;;;1.25;100.00
13867;BME280;7003;46.982;15.248;2024-02-21T05:03:06;97979.28;;;1.41;100.00
13867;BME280;7003;46.982;15.248;2024-02-21T05:05:33;97981.31;;;1.34;100.00
13867;BME280;7003;46.982;15.248;2024-02-21T05:08:03;97985.66;;;1.23;100.00
13867;BME280;7003;46.982;15.248;2024-02-21T05:10:34;97981.22;;;1.24;100.00
13867;BME280;7003;46.982;15.248;2024-02-21T05:13:05;97984.00;;;1.17;100.00
13867;BME280;7003;46.982;15.248;2024-02-21T05:15:32;97986.78;;;1.10;100.00
13867;BME280;7003;46.982;15.248;2024-02-21T05:17:59;97990.06;;;1.01;100.00
13867;BME280;7003;46.982;15.248;2024-02-21T05:20:29;97994.66;;;1.10;100.00
13867;BME280;7003;46.982;15.248;2024-02-21T05:22:56;97995.53;;;1.16;100.00
13867;BME280;7003;46.982;15.248;2024-02-21T05:25:23;97994.41;;;1.12;100.00
13867;BME280;7003;46.982;15.248;2024-02-21T05:27:51;98001.44;;;1.06;100.00
13867;BME280;7003;46.982;15.248;2024-02-21T05:30:20;97982.94;;;0.96;100.00
13867;BME280;7003;46.982;15.248;2024-02-21T05:32:50;97987.72;;;0.99;100.00
13867;BME280;7003;46.982;15.248;2024-02-21T05:35:18;97978.75;;;0.95;100.00
13867;BME280;7003;46.982;15.248;2024-02-21T05:37:47;97980.16;;;1.03;100.00
13867;BME280;7003;46.982;15.248;2024-02-21T05:40:18;97977.75;;;1.01;100.00
13867;BME280;7003;46.982;15.248;2024-02-21T05:42:48;97975.50;;;0.88;100.00
13867;BME280;7003;46.982;15.248;2024-02-21T05:45:21;97977.97;;;0.78;100.00
13867;BME280;7003;46.982;15.248;2024-02-21T05:47:49;97981.34;;;0.73;100.00
13867;BME280;7003;46.982;15.248;2024-02-21T05:50:20;97972.69;;;0.73;100.00
13867;BME280;7003;46.982;15.248;2024-02-21T05:52:52;97977.69;;;0.74;100.00
13867;BME280;7003;46.982;15.248;2024-02-21T05:55:22;97987.84;;;0.71;100.00
13867;BME280;7003;46.982;15.248;2024-02-21T05:57:55;97978.31;;;0.82;100.00
13867;BME280;7003;46.982;15.248;2024-02-21T06:00:28;97973.25;;;0.75;100.00
13867;BME280;7003;46.982;15.248;2024-02-21T06:02:57;97974.13;;;0.64;100.00
13867;BME280;7003;46.982;15.248;2024-02-21T06:05:30;97973.91;;;0.65;100.00
13867;BME280;7003;46.982;15.248;2024-02-21T06:08:06;97968.84;;;0.59;100.00
13867;BME280;7003;46.982;15.248;2024-02-21T06:10:37;97975.56;;;0.55;100.00
13867;BME280;7003;46.982;15.248;2024-02-21T06:13:08;97974.00;;;0.54;100.00
13867;BME280;7003;46.982;15.248;2024-02-21T06:15:38;97970.09;;;0.39;100.00
13867;BME280;7003;46.982;15.248;2024-02-21T06:18:08;97970.41;;;0.60;100.00
13867;BME280;7003;46.982;15.248;2024-02-21T06:20:36;97963.53;;;0.37;100.00
13867;BME280;7003;46.982;15.248;2024-02-21T06:23:06;97970.31;;;0.55;100.00
13867;BME280;7003;46.982;15.248;2024-02-21T06:25:42;97971.69;;;0.41;100.00
13867;BME280;7003;46.982;15.248;2024-02-21T06:28:13;97970.81;;;0.52;100.00
13867;BME280;7003;46.982;15.248;2024-02-21T06:30:45;97973.28;;;0.42;100.00
13867;BME280;7003;46.982;15.248;2024-02-21T06:33:14;97966.63;;;0.34;100.00
13867;BME280;7003;46.982;15.248;2024-02-21T06:35:43;97967.25;;;0.41;100.00
13867;BME280;7003;46.982;15.248;2024-02-21T06:38:13;97959.94;;;0.60;100.00
13867;BME280;7003;46.982;15.248;2024-02-21T06:40:46;97965.88;;;0.72;100.00
13867;BME280;7003;46.982;15.248;2024-02-21T06:43:19;97968.81;;;0.97;100.00
13867;BME280;7003;46.982;15.248;2024-02-21T06:45:53;97974.91;;;1.25;100.00
13867;BME280;7003;46.982;15.248;2024-02-21T06:48:23;97977.66;;;1.35;100.00
13867;BME280;7003;46.982;15.248;2024-02-21T06:50:53;97983.09;;;1.55;100.00
13867;BME280;7003;46.982;15.248;2024-02-21T06:53:21;97992.91;;;1.65;100.00
13867;BME280;7003;46.982;15.248;2024-02-21T06:55:53;97993.41;;;1.88;100.00
13867;BME280;7003;46.982;15.248;2024-02-21T06:58:21;97991.00;;;2.09;100.00
13867;BME280;7003;46.982;15.248;2024-02-21T07:00:52;97985.25;;;2.17;100.00
13867;BME280;7003;46.982;15.248;2024-02-21T07:03:23;97983.19;;;2.19;100.00
13867;BME280;7003;46.982;15.248;2024-02-21T07:05:52;97981.13;;;2.21;100.00
13867;BME280;7003;46.982;15.248;2024-02-21T07:08:21;97987.41;;;2.20;100.00
13867;BME280;7003;46.982;15.248;2024-02-21T07:10:53;97978.00;;;2.24;100.00
13867;BME280;7003;46.982;15.248;2024-02-21T07:13:23;97993.28;;;2.32;100.00
13867;BME280;7003;46.982;15.248;2024-02-21T07:15:54;97990.72;;;2.42;100.00
13867;BME280;7003;46.982;15.248;2024-02-21T07:18:22;97998.44;;;2.54;100.00
13867;BME280;7003;46.982;15.248;2024-02-21T07:20:51;97993.28;;;2.69;100.00
13867;BME280;7003;46.982;15.248;2024-02-21T07:23:20;97999.91;;;2.77;100.00
13867;BME280;7003;46.982;15.248;2024-02-21T07:25:49;97992.56;;;2.79;100.00
13867;BME280;7003;46.982;15.248;2024-02-21T07:28:17;97988.59;;;2.76;100.00
13867;BME280;7003;46.982;15.248;2024-02-21T07:30:45;97980.50;;;2.88;100.00
13867;BME280;7003;46.982;15.248;2024-02-21T07:33:17;97971.16;;;3.02;100.00
13867;BME280;7003;46.982;15.248;2024-02-21T07:35:45;97982.88;;;2.84;100.00
13867;BME280;7003;46.982;15.248;2024-02-21T07:38:13;97975.28;;;2.93;100.00
13867;BME280;7003;46.982;15.248;2024-02-21T07:40:41;97971.16;;;3.07;100.00
13867;BME280;7003;46.982;15.248;2024-02-21T07:43:10;97973.78;;;3.07;100.00
13867;BME280;7003;46.982;15.248;2024-02-21T07:45:38;97969.66;;;3.26;100.00
13867;BME280;7003;46.982;15.248;2024-02-21T07:48:10;97975.75;;;3.37;100.00
13867;BME280;7003;46.982;15.248;2024-02-21T07:50:40;97969.72;;;3.52;100.00
13867;BME280;7003;46.982;15.248;2024-02-21T07:53:28;97958.47;;;3.66;100.00
13867;BME280;7003;46.982;15.248;2024-02-21T07:56:16;97959.03;;;4.19;100.00
13867;BME280;7003;46.982;15.248;2024-02-21T07:58:46;97957.91;;;4.76;100.00
13867;BME280;7003;46.982;15.248;2024-02-21T08:01:19;97957.81;;;5.16;100.00
13867;BME280;7003;46.982;15.248;2024-02-21T08:03:50;97956.34;;;5.49;100.00
13867;BME280;7003;46.982;15.248;2024-02-21T08:06:23;97952.41;;;5.91;100.00
13867;BME280;7003;46.982;15.248;2024-02-21T08:08:52;97948.94;;;6.29;100.00
13867;BME280;7003;46.982;15.248;2024-02-21T08:11:22;97950.38;;;6.45;100.00
13867;BME280;7003;46.982;15.248;2024-02-21T08:13:51;97939.59;;;6.71;100.00
13867;BME280;7003;46.982;15.248;2024-02-21T08:16:20;97946.69;;;6.46;100.00
13867;BME280;7003;46.982;15.248;2024-02-21T08:18:49;97944.19;;;6.84;100.00
13867;BME280;7003;46.982;15.248;2024-02-21T08:21:22;97932.72;;;7.17;100.00
13867;BME280;7003;46.982;15.248;2024-02-21T08:23:51;97923.66;;;7.42;100.00
13867;BME280;7003;46.982;15.248;2024-02-21T08:26:23;97932.75;;;7.55;100.00
13867;BME280;7003;46.982;15.248;2024-02-21T08:29:00;97932.59;;;8.02;100.00
13867;BME280;7003;46.982;15.248;2024-02-21T08:31:30;97934.94;;;8.55;100.00
13867;BME280;7003;46.982;15.248;2024-02-21T08:34:01;97927.91;;;9.05;100.00
13867;BME280;7003;46.982;15.248;2024-02-21T08:36:33;97927.13;;;9.54;81.40
13867;BME280;7003;46.982;15.248;2024-02-21T08:39:04;97927.78;;;9.74;75.27
13867;BME280;7003;46.982;15.248;2024-02-21T08:41:33;97926.97;;;10.31;76.67
13867;BME280;7003;46.982;15.248;2024-02-21T08:44:02;97916.53;;;10.66;71.63
13867;BME280;7003;46.982;15.248;2024-02-21T08:46:31;97910.34;;;10.88;65.83
13867;BME280;7003;46.982;15.248;2024-02-21T08:49:00;97917.63;;;11.04;63.80
13867;BME280;7003;46.982;15.248;2024-02-21T08:51:32;97912.34;;;11.39;61.66
13867;BME280;7003;46.982;15.248;2024-02-21T08:54:05;97906.13;;;11.69;57.96
13867;BME280;7003;46.982;15.248;2024-02-21T08:56:37;97906.31;;;11.99;56.40
13867;BME280;7003;46.982;15.248;2024-02-21T08:59:05;97901.41;;;12.18;53.57
13867;BME280;7003;46.982;15.248;2024-02-21T09:01:34;97902.28;;;12.56;53.62
13867;BME280;7003;46.982;15.248;2024-02-21T09:04:05;97915.81;;;12.34;49.63
13867;BME280;7003;46.982;15.248;2024-02-21T09:06:38;97906.53;;;12.49;49.48
13867;BME280;7003;46.982;15.248;2024-02-21T09:09:08;97900.38;;;12.57;49.96
13867;BME280;7003;46.982;15.248;2024-02-21T09:11:37;97898.91;;;12.30;50.06
13867;BME280;7003;46.982;15.248;2024-02-21T09:14:08;97894.88;;;11.89;50.88
13867;BME280;7003;46.982;15.248;2024-02-21T09:16:39;97898.44;;;11.42;53.29
13867;BME280;7003;46.982;15.248;2024-02-21T09:19:07;97893.19;;;11.11;54.87
13867;BME280;7003;46.982;15.248;2024-02-21T09:21:42;97891.78;;;11.05;57.22
13867;BME280;7003;46.982;15.248;2024-02-21T09:24:10;97886.72;;;10.95;58.37
13867;BME280;7003;46.982;15.248;2024-02-21T09:26:38;97897.00;;;10.79;58.11
13867;BME280;7003;46.982;15.248;2024-02-21T09:29:09;97889.97;;;10.74;58.46
13867;BME280;7003;46.982;15.248;2024-02-21T09:31:41;97891.88;;;10.83;57.34
13867;BME280;7003;46.982;15.248;2024-02-21T09:34:09;97886.03;;;10.72;56.84
13867;BME280;7003;46.982;15.248;2024-02-21T09:36:42;97874.44;;;10.68;55.88
13867;BME280;7003;46.982;15.248;2024-02-21T09:39:13;97877.38;;;10.58;55.84
13867;BME280;7003;46.982;15.248;2024-02-21T09:41:47;97879.66;;;10.42;55.74
13867;BME280;7003;46.982;15.248;2024-02-21T09:44:19;97877.13;;;10.46;56.17
13867;BME280;7003;46.982;15.248;2024-02-21T09:46:52;97874.38;;;10.51;56.39
13867;BME280;7003;46.982;15.248;2024-02-21T09:49:30;97868.56;;;10.49;56.54
13867;BME280;7003;46.982;15.248;2024-02-21T09:52:04;97870.47;;;10.57;58.70
13867;BME280;7003;46.982;15.248;2024-02-21T09:54:34;97871.63;;;10.11;60.42
13867;BME280;7003;46.982;15.248;2024-02-21T09:57:03;97863.16;;;9.87;57.64
13867;BME280;7003;46.982;15.248;2024-02-21T09:59:33;97857.50;;;9.80;62.58
13867;BME280;7003;46.982;15.248;2024-02-21T10:02:02;97859.53;;;9.60;65.46
13867;BME280;7003;46.982;15.248;2024-02-21T10:04:33;97857.50;;;9.57;65.11
13867;BME280;7003;46.982;15.248;2024-02-21T10:07:06;97850.19;;;9.85;66.74
13867;BME280;7003;46.982;15.248;2024-02-21T10:09:35;97850.16;;;10.08;65.41
13867;BME280;7003;46.982;15.248;2024-02-21T10:12:10;97847.47;;;10.52;62.88
13867;BME280;7003;46.982;15.248;2024-02-21T10:14:42;97845.44;;;11.23;61.36
13867;BME280;7003;46.982;15.248;2024-02-21T10:17:16;97842.47;;;11.93;55.99
13867;BME280;7003;46.982;15.248;2024-02-21T10:19:45;97841.38;;;12.03;52.49
13867;BME280;7003;46.982;15.248;2024-02-21T10:22:15;97838.13;;;11.80;45.74
13867;BME280;7003;46.982;15.248;2024-02-21T10:24:47;97837.47;;;11.66;47.06
13867;BME280;7003;46.982;15.248;2024-02-21T10:27:15;97830.75;;;11.51;49.18
13867;BME280;7003;46.982;15.248;2024-02-21T10:29:49;97828.41;;;11.76;50.18
13867;BME280;7003;46.982;15.248;2024-02-21T10:32:18;97828.06;;;11.86;48.92
13867;BME280;7003;46.982;15.248;2024-02-21T10:34:45;97823.97;;;11.63;50.30
13867;BME280;7003;46.982;15.248;2024-02-21T10:37:21;97819.13;;;11.56;49.93
13867;BME280;7003;46.982;15.248;2024-02-21T10:39:53;97814.75;;;11.51;50.72
13867;BME280;7003;46.982;15.248;2024-02-21T10:42:23;97808.03;;;11.45;52.15
13867;BME280;7003;46.982;15.248;2024-02-21T10:45:01;97803.63;;;11.41;51.85
13867;BME280;7003;46.982;15.248;2024-02-21T10:47:35;97793.28;;;11.65;51.22
13867;BME280;7003;46.982;15.248;2024-02-21T10:50:08;97784.56;;;12.11;49.44
13867;BME280;7003;46.982;15.248;2024-02-21T10:52:51;97783.69;;;12.37;49.79
13867;BME280;7003;46.982;15.248;2024-02-21T10:55:29;97783.72;;;12.87;50.00
13867;BME280;7003;46.982;15.248;2024-02-21T10:58:01;97777.53;;;13.45;50.25
13867;BME280;7003;46.982;15.248;2024-02-21T11:00:31;97765.47;;;14.17;48.13
13867;BME280;7003;46.982;15.248;2024-02-21T11:03:01;97760.34;;;14.36;46.89
13867;BME280;7003;46.982;15.248;2024-02-21T11:05:31;97760.22;;;14.08;46.33
13867;BME280;7003;46.982;15.248;2024-02-21T11:08:03;97747.69;;;13.88;47.78
13867;BME280;7003;46.982;15.248;2024-02-21T11:10:37;97746.69;;;13.80;48.67
13867;BME280;7003;46.982;15.248;2024-02-21T11:13:07;97741.31;;;13.80;49.22
13867;BME280;7003;46.982;15.248;2024-02-21T11:15:39;97736.84;;;14.54;48.03
13867;BME280;7003;46.982;15.248;2024-02-21T11:18:09;97725.38;;;15.06;46.31
13867;BME280;7003;46.982;15.248;2024-02-21T11:20:49;97736.31;;;15.40;44.42
13867;BME280;7003;46.982;15.248;2024-02-21T11:23:26;97717.38;;;15.61;44.51
13867;BME280;7003;46.982;15.248;2024-02-21T11:26:07;97712.28;;;16.19;43.21
13867;BME280;7003;46.982;15.248;2024-02-21T11:28:36;97701.75;;;16.96;42.04
13867;BME280;7003;46.982;15.248;2024-02-21T11:31:09;97687.94;;;17.36;40.40
13867;BME280;7003;46.982;15.248;2024-02-21T11:33:40;97686.53;;;17.61;39.23
13867;BME280;7003;46.982;15.248;2024-02-21T11:36:24;97681.78;;;17.36;40.28
13867;BME280;7003;46.982;15.248;2024-02-21T11:38:55;97665.13;;;17.91;40.34
13867;BME280;7003;46.982;15.248;2024-02-21T11:41:32;97656.97;;;18.37;40.27
13867;BME280;7003;46.982;15.248;2024-02-21T11:44:01;97657.72;;;18.34;35.10
13867;BME280;7003;46.982;15.248;2024-02-21T11:46:31;97650.84;;;17.87;38.55
13867;BME280;7003;46.982;15.248;2024-02-21T11:49:01;97647.88;;;16.89;36.14
13867;BME280;7003;46.982;15.248;2024-02-21T11:51:36;97646.38;;;16.37;39.41
13867;BME280;7003;46.982;15.248;2024-02-21T11:54:09;97637.56;;;14.99;38.60
13867;BME280;7003;46.982;15.248;2024-02-21T11:56:40;97640.38;;;14.62;39.50
13867;BME280;7003;46.982;15.248;2024-02-21T11:59:11;97639.50;;;13.98;40.99
13867;BME280;7003;46.982;15.248;2024-02-21T12:01:40;97639.38;;;14.18;39.57
13867;BME280;7003;46.982;15.248;2024-02-21T12:04:16;97631.72;;;13.68;41.31
13867;BME280;7003;46.982;15.248;2024-02-21T12:06:50;97636.28;;;13.68;40.82
13867;BME280;7003;46.982;15.248;2024-02-21T12:09:29;97625.91;;;13.66;39.96
13867;BME280;7003;46.982;15.248;2024-02-21T12:12:05;97631.47;;;14.46;39.57
13867;BME280;7003;46.982;15.248;2024-02-21T12:14:42;97624.38;;;14.78;39.28
13867;BME280;7003;46.982;15.248;2024-02-21T12:17:12;97621.72;;;15.37;38.33
13867;BME280;7003;46.982;15.248;2024-02-21T12:19:45;97614.81;;;15.52;36.47
13867;BME280;7003;46.982;15.248;2024-02-21T12:22:18;97610.22;;;16.50;34.38
13867;BME280;7003;46.982;15.248;2024-02-21T12:24:52;97600.16;;;17.02;32.22
13867;BME280;7003;46.982;15.248;2024-02-21T12:27:28;97602.63;;;17.10;32.56
13867;BME280;7003;46.982;15.248;2024-02-21T12:30:00;97592.56;;;17.49;33.80
13867;BME280;7003;46.982;15.248;2024-02-21T12:32:42;97573.28;;;18.79;32.36
13867;BME280;7003;46.982;15.248;2024-02-21T12:35:15;97582.09;;;18.20;31.43
13867;BME280;7003;46.982;15.248;2024-02-21T12:37:48;97579.50;;;19.20;31.11
13867;BME280;7003;46.982;15.248;2024-02-21T12:40:21;97565.44;;;17.84;30.49
13867;BME280;7003;46.982;15.248;2024-02-21T12:42:54;97564.16;;;17.75;32.90
13867;BME280;7003;46.982;15.248;2024-02-21T12:45:28;97558.13;;;19.41;31.37
13867;BME280;7003;46.982;15.248;2024-02-21T12:48:03;97560.69;;;18.27;31.81
13867;BME280;7003;46.982;15.248;2024-02-21T12:50:36;97560.78;;;18.34;32.28
13867;BME280;7003;46.982;15.248;2024-02-21T12:53:11;97557.44;;;19.48;30.93
13867;BME280;7003;46.982;15.248;2024-02-21T12:55:46;97556.50;;;17.54;32.63
13867;BME280;7003;46.982;15.248;2024-02-21T12:58:17;97555.75;;;17.11;31.80
13867;BME280;7003;46.982;15.248;2024-02-21T13:00:49;97555.09;;;18.13;33.46
13867;BME280;7003;46.982;15.248;2024-02-21T13:03:21;97549.56;;;18.58;31.03
13867;BME280;7003;46.982;15.248;2024-02-21T13:05:51;97546.47;;;18.30;30.94
13867;BME280;7003;46.982;15.248;2024-02-21T13:08:27;97544.81;;;18.81;31.66
13867;BME280;7003;46.982;15.248;2024-02-21T13:10:59;97548.44;;;17.08;32.69
13867;BME280;7003;46.982;15.248;2024-02-21T13:13:30;97543.19;;;17.15;33.74
13867;BME280;7003;46.982;15.248;2024-02-21T13:16:03;97533.69;;;18.23;32.82